Time;durP1;ratioP1;P1;durP2;ratioP2;P2;SDS_P1;SDS_P2;PMS_P1;PMS_P2;Temp;Humidity;BMP_temperature;BMP_pressure;BME280_temperature;BME280_humidity;BME280_pressure;Samples;Min_cycle;Max_cycle;Signal;HPM_P1;HPM_P2
2023/11/27 00:00:24;;;;;;;1.10;1.00;;;;;;;2.21;81.39;99548.13;5121944;28;20031;-65
2023/11/27 00:02:50;;;;;;;1.60;1.08;;;;;;;2.36;81.00;99564.44;5122473;28;20050;-66
2023/11/27 00:05:16;;;;;;;0.90;0.82;;;;;;;2.38;81.84;99573.81;5122385;28;20377;-65
2023/11/27 00:07:41;;;;;;;1.52;1.10;;;;;;;2.37;81.58;99572.16;5121048;28;20059;-63
2023/11/27 00:10:07;;;;;;;1.42;0.90;;;;;;;2.42;82.05;99570.03;5121907;28;20193;-63
2023/11/27 00:12:32;;;;;;;1.00;0.90;;;;;;;2.34;81.94;99571.56;5120929;28;20087;-64
2023/11/27 00:14:58;;;;;;;0.98;0.98;;;;;;;2.20;82.68;99570.81;5121766;28;20348;-63
2023/11/27 00:17:23;;;;;;;1.35;1.00;;;;;;;2.27;83.31;99579.00;5121741;27;20054;-65
2023/11/27 00:19:49;;;;;;;3.03;1.85;;;;;;;2.25;83.24;99591.34;5121789;28;20057;-65
2023/11/27 00:22:14;;;;;;;1.05;0.77;;;;;;;2.26;83.64;99584.34;5120957;28;20036;-63
2023/11/27 00:24:40;;;;;;;1.42;1.00;;;;;;;2.12;84.45;99594.03;5122130;28;20027;-63
2023/11/27 00:27:06;;;;;;;1.17;0.90;;;;;;;2.21;84.36;99598.59;5121502;28;20102;-65
2023/11/27 00:29:32;;;;;;;0.88;0.85;;;;;;;2.05;84.15;99592.78;5112183;28;20244;-66
2023/11/27 00:31:57;;;;;;;0.65;0.65;;;;;;;2.13;83.91;99616.59;5121381;28;20283;-64
2023/11/27 00:34:23;;;;;;;1.63;1.00;;;;;;;2.17;84.11;99618.03;5121601;28;20254;-64
2023/11/27 00:36:48;;;;;;;0.75;0.75;;;;;;;2.23;83.89;99608.94;5120757;28;20056;-64
2023/11/27 00:39:13;;;;;;;1.05;0.60;;;;;;;2.03;83.97;99606.91;5121546;27;20076;-66
2023/11/27 00:41:39;;;;;;;0.77;0.70;;;;;;;2.07;84.19;99613.56;5120346;28;20451;-66
2023/11/27 00:44:04;;;;;;;1.30;0.90;;;;;;;2.12;84.58;99609.72;5120711;28;20042;-64
2023/11/27 00:46:30;;;;;;;0.95;0.95;;;;;;;2.24;84.89;99615.81;5120781;28;20031;-64
2023/11/27 00:48:55;;;;;;;2.65;1.35;;;;;;;2.24;85.19;99618.44;5120666;28;20051;-66
2023/11/27 00:51:21;;;;;;;1.70;1.60;;;;;;;2.23;85.43;99624.59;5120869;28;20031;-66
2023/11/27 00:53:46;;;;;;;1.13;1.02;;;;;;;2.42;85.54;99621.47;5121909;28;20039;-64
2023/11/27 00:56:12;;;;;;;1.10;1.00;;;;;;;2.41;84.19;99612.78;5119964;28;20039;-64
2023/11/27 00:58:37;;;;;;;1.50;1.40;;;;;;;2.30;85.04;99624.97;5119928;28;20035;-64
2023/11/27 01:01:05;;;;;;;2.72;1.60;;;;;;;2.36;85.64;99627.97;5120414;28;20100;-63
2023/11/27 01:03:31;;;;;;;1.45;1.20;;;;;;;2.38;85.56;99631.31;5119678;28;20293;-65
2023/11/27 01:05:56;;;;;;;1.25;1.08;;;;;;;2.45;85.37;99632.53;5118142;28;20104;-65
2023/11/27 01:08:22;;;;;;;1.17;1.08;;;;;;;2.37;85.29;99629.66;5118999;28;20256;-63
2023/11/27 01:10:48;;;;;;;0.98;0.98;;;;;;;2.44;84.71;99645.72;5119915;28;20035;-63
2023/11/27 01:13:14;;;;;;;1.08;0.90;;;;;;;2.38;83.77;99630.47;5119714;27;20048;-63
2023/11/27 01:15:41;;;;;;;1.55;1.13;;;;;;;2.38;83.73;99652.22;5101122;28;20043;-66
2023/11/27 01:18:06;;;;;;;2.00;1.10;;;;;;;2.55;82.73;99654.41;5117943;28;20042;-65
2023/11/27 01:20:32;;;;;;;1.27;0.93;;;;;;;2.44;81.89;99659.59;5119298;28;20035;-63
2023/11/27 01:22:58;;;;;;;0.90;0.90;;;;;;;2.47;81.32;99662.00;5119454;28;20099;-63
2023/11/27 01:25:23;;;;;;;0.95;0.90;;;;;;;2.37;81.47;99671.47;5119413;28;20375;-63
2023/11/27 01:27:49;;;;;;;1.38;0.70;;;;;;;2.45;81.22;99665.66;5120553;28;20035;-63
2023/11/27 01:30:15;;;;;;;1.67;0.90;;;;;;;2.43;80.87;99662.34;5119475;28;20292;-66
2023/11/27 01:32:43;;;;;;;1.60;1.20;;;;;;;2.49;80.70;99661.88;5118721;28;20263;-65
2023/11/27 01:35:08;;;;;;;1.83;0.93;;;;;;;2.41;80.72;99651.16;5118686;28;20106;-63
2023/11/27 01:37:34;;;;;;;1.13;0.90;;;;;;;2.27;81.47;99654.78;5117888;28;20261;-63
2023/11/27 01:40:00;;;;;;;1.10;1.00;;;;;;;2.32;82.83;99644.00;5118405;28;20033;-65
2023/11/27 01:42:25;;;;;;;1.30;0.95;;;;;;;2.36;83.24;99654.13;5117888;28;20066;-64
2023/11/27 01:44:50;;;;;;;2.20;1.10;;;;;;;2.40;83.80;99652.94;5117943;28;20040;-63
2023/11/27 01:47:16;;;;;;;2.58;1.33;;;;;;;2.32;83.42;99662.28;5117941;28;20072;-63
2023/11/27 01:49:42;;;;;;;1.52;1.17;;;;;;;2.17;84.07;99661.63;5117513;28;20249;-63
2023/11/27 01:52:08;;;;;;;1.15;1.00;;;;;;;2.31;84.45;99668.47;5117815;28;20039;-63
2023/11/27 01:54:36;;;;;;;1.85;1.08;;;;;;;2.35;83.35;99673.34;5117807;28;20136;-65
2023/11/27 01:57:03;;;;;;;0.70;0.70;;;;;;;2.44;83.54;99682.28;5118183;28;20041;-65
2023/11/27 01:59:29;;;;;;;1.23;1.00;;;;;;;2.44;82.62;99690.97;5118241;28;20090;-64
2023/11/27 02:01:55;;;;;;;1.38;0.70;;;;;;;2.50;83.00;99687.91;5118407;28;20036;-63
2023/11/27 02:04:20;;;;;;;1.67;1.00;;;;;;;2.50;81.87;99689.69;5118712;28;20054;-63
2023/11/27 02:06:46;;;;;;;1.70;0.75;;;;;;;2.40;81.81;99691.31;5117987;28;20032;-65
2023/11/27 02:09:13;;;;;;;0.90;0.90;;;;;;;2.45;81.85;99687.41;5119331;28;20043;-65
2023/11/27 02:11:49;;;;;;;1.35;1.10;;;;;;;2.47;81.80;99688.13;5118920;28;20046;-63
2023/11/27 02:14:16;;;;;;;1.42;1.27;;;;;;;2.49;81.80;99688.03;5118654;28;20149;-63
2023/11/27 02:16:43;;;;;;;0.98;0.90;;;;;;;2.53;82.04;99686.84;5118646;27;20026;-63
2023/11/27 02:19:09;;;;;;;1.15;0.93;;;;;;;2.49;82.05;99695.84;5117631;28;20028;-64
2023/11/27 02:21:34;;;;;;;1.10;0.80;;;;;;;2.51;82.56;99691.34;5117662;28;20321;-65
2023/11/27 02:24:00;;;;;;;1.50;1.40;;;;;;;2.51;82.60;99700.03;5117734;28;20035;-63
2023/11/27 02:26:25;;;;;;;2.47;1.50;;;;;;;2.45;82.49;99691.81;5118121;28;20035;-63
2023/11/27 02:28:51;;;;;;;2.25;1.48;;;;;;;2.47;81.39;99695.97;5118152;28;20328;-63
2023/11/27 02:31:16;;;;;;;1.00;0.93;;;;;;;2.45;81.64;99703.09;5116346;28;20043;-65
2023/11/27 02:33:41;;;;;;;1.13;1.05;;;;;;;2.29;82.29;99699.91;5117884;28;20088;-65
2023/11/27 02:36:08;;;;;;;1.00;0.90;;;;;;;2.34;81.71;99691.75;5117573;28;20513;-63
2023/11/27 02:38:33;;;;;;;0.93;0.82;;;;;;;2.41;81.23;99701.66;5117004;28;20285;-63
2023/11/27 02:40:59;;;;;;;1.00;0.90;;;;;;;2.47;81.18;99703.81;5117440;28;20035;-65
2023/11/27 02:43:25;;;;;;;1.17;1.08;;;;;;;2.54;81.18;99707.66;5117342;28;20102;-64
2023/11/27 02:45:51;;;;;;;1.85;1.00;;;;;;;2.51;81.03;99702.66;5118278;28;20069;-62
2023/11/27 02:48:16;;;;;;;1.10;1.00;;;;;;;2.56;80.39;99705.75;5116834;28;20055;-65
2023/11/27 02:50:43;;;;;;;1.88;1.30;;;;;;;2.76;79.76;99703.44;5117508;28;20449;-65
2023/11/27 02:53:08;;;;;;;1.17;0.77;;;;;;;2.30;81.50;99698.13;5117351;28;20047;-63
2023/11/27 02:55:34;;;;;;;1.30;1.20;;;;;;;2.19;82.07;99696.31;5117636;28;20023;-63
2023/11/27 02:57:59;;;;;;;1.75;1.52;;;;;;;2.23;81.97;99695.97;5117205;28;20348;-63
2023/11/27 03:00:25;;;;;;;1.48;1.00;;;;;;;2.32;82.10;99691.84;5113588;28;20027;-65
2023/11/27 03:02:51;;;;;;;1.73;1.40;;;;;;;2.30;82.44;99693.75;5117171;28;20039;-64
2023/11/27 03:05:16;;;;;;;1.40;1.00;;;;;;;2.33;82.87;99693.53;5116896;28;20027;-64
2023/11/27 03:07:43;;;;;;;2.10;1.10;;;;;;;2.31;82.55;99697.19;5116693;28;20036;-63
2023/11/27 03:10:09;;;;;;;3.03;1.60;;;;;;;2.39;82.32;99707.94;5117415;28;20035;-63
2023/11/27 03:12:37;;;;;;;2.03;1.55;;;;;;;2.27;82.49;99709.66;5117486;28;20077;-64
2023/11/27 03:15:05;;;;;;;1.98;1.33;;;;;;;2.38;82.88;99721.94;5117562;28;20027;-65
2023/11/27 03:17:30;;;;;;;1.10;1.00;;;;;;;2.35;82.10;99722.16;5107950;28;20056;-65
2023/11/27 03:19:56;;;;;;;2.78;1.45;;;;;;;2.38;82.43;99724.56;5117955;28;20251;-63
2023/11/27 03:22:23;;;;;;;2.17;1.48;;;;;;;2.30;82.36;99712.03;5117116;28;20444;-64
2023/11/27 03:24:48;;;;;;;2.95;1.60;;;;;;;2.44;82.56;99722.31;5117221;28;20023;-63
2023/11/27 03:27:14;;;;;;;2.53;1.92;;;;;;;2.51;81.47;99720.09;5117127;28;20233;-65
2023/11/27 03:29:40;;;;;;;1.80;1.38;;;;;;;2.40;81.53;99726.09;5116332;28;20035;-65
2023/11/27 03:32:06;;;;;;;1.00;0.98;;;;;;;2.45;81.46;99723.16;5116752;28;20276;-63
2023/11/27 03:34:31;;;;;;;1.63;1.17;;;;;;;2.28;81.31;99721.75;5116517;28;20325;-64
2023/11/27 03:36:57;;;;;;;1.33;1.20;;;;;;;2.19;81.75;99709.38;5115962;28;20031;-63
2023/11/27 03:39:23;;;;;;;1.33;1.05;;;;;;;2.15;82.20;99706.13;5116788;28;20032;-63
2023/11/27 03:41:51;;;;;;;1.17;0.90;;;;;;;1.90;82.76;99706.19;5116393;28;20367;-65
2023/11/27 03:44:17;;;;;;;1.83;0.98;;;;;;;1.99;83.07;99705.53;5117506;28;20070;-65
2023/11/27 03:46:42;;;;;;;1.27;1.10;;;;;;;1.95;83.90;99701.47;5117183;28;20027;-63
2023/11/27 03:49:08;;;;;;;1.20;1.08;;;;;;;2.05;83.72;99704.25;5116594;28;20054;-63
2023/11/27 03:51:37;;;;;;;1.25;1.08;;;;;;;2.11;83.32;99703.84;5116695;28;20229;-63
2023/11/27 03:54:03;;;;;;;1.05;1.00;;;;;;;2.15;83.09;99700.91;5117171;28;20035;-65
2023/11/27 03:56:29;;;;;;;1.13;0.90;;;;;;;1.87;83.42;99694.16;5116645;28;20039;-64
2023/11/27 03:58:54;;;;;;;1.23;1.13;;;;;;;1.93;83.67;99693.75;5116329;28;20052;-63
2023/11/27 04:01:21;;;;;;;1.33;1.23;;;;;;;1.89;84.33;99679.22;5116496;28;20050;-63
2023/11/27 04:03:47;;;;;;;1.58;1.00;;;;;;;1.87;83.91;99685.50;5115829;28;20027;-63
2023/11/27 04:06:25;;;;;;;1.42;1.08;;;;;;;1.99;83.38;99689.03;5116584;28;20048;-65
2023/11/27 04:08:50;;;;;;;1.55;1.30;;;;;;;1.92;83.75;99686.00;5116498;28;20044;-66
2023/11/27 04:11:16;;;;;;;3.28;1.70;;;;;;;1.93;83.50;99688.50;5116668;28;20066;-64
2023/11/27 04:13:41;;;;;;;1.63;1.25;;;;;;;1.80;83.65;99690.31;5117027;28;20063;-63
2023/11/27 04:16:09;;;;;;;3.65;2.10;;;;;;;1.87;83.03;99693.34;5117076;28;20032;-65
2023/11/27 04:18:35;;;;;;;4.68;2.15;;;;;;;1.80;83.68;99705.16;5117225;28;20036;-65
2023/11/27 04:21:00;;;;;;;2.15;1.48;;;;;;;1.92;82.90;99712.13;5116413;28;20047;-64
2023/11/27 04:23:26;;;;;;;1.80;1.65;;;;;;;1.86;82.13;99728.22;5116399;28;20044;-63
2023/11/27 04:25:51;;;;;;;1.20;1.10;;;;;;;1.98;82.01;99735.19;5117421;28;20043;-63
2023/11/27 04:28:16;;;;;;;1.00;0.90;;;;;;;2.06;81.82;99747.72;5116637;28;20214;-64
2023/11/27 04:30:42;;;;;;;1.50;0.90;;;;;;;2.05;81.49;99753.88;5117037;28;20035;-65
2023/11/27 04:33:07;;;;;;;1.25;0.80;;;;;;;2.13;81.02;99754.22;5116507;28;20367;-63
2023/11/27 04:35:33;;;;;;;3.97;2.50;;;;;;;2.15;79.82;99770.59;5115670;28;20039;-64
2023/11/27 04:37:59;;;;;;;2.35;1.85;;;;;;;2.24;79.66;99762.13;5115467;28;20027;-64
2023/11/27 04:40:24;;;;;;;1.17;0.90;;;;;;;2.05;80.59;99773.00;5115752;28;20096;-65
2023/11/27 04:42:50;;;;;;;1.80;1.30;;;;;;;2.04;79.80;99773.09;5119397;28;20029;-65
2023/11/27 04:45:15;;;;;;;1.10;0.98;;;;;;;1.97;80.06;99766.63;5119342;28;20404;-63
2023/11/27 04:47:41;;;;;;;1.33;1.02;;;;;;;2.08;80.42;99757.16;5118867;28;20023;-63
2023/11/27 04:50:07;;;;;;;1.98;1.08;;;;;;;2.07;80.24;99758.06;5118981;28;20294;-63
2023/11/27 04:52:33;;;;;;;1.92;1.30;;;;;;;2.04;80.17;99765.28;5118955;27;20080;-65
2023/11/27 04:54:58;;;;;;;2.55;1.40;;;;;;;2.09;80.31;99766.66;5119769;28;20287;-65
2023/11/27 04:57:24;;;;;;;6.15;2.40;;;;;;;2.07;79.78;99765.88;5119701;28;20036;-63
2023/11/27 04:59:50;;;;;;;1.27;1.15;;;;;;;2.10;79.97;99775.31;5121829;28;20358;-64
2023/11/27 05:02:17;;;;;;;1.20;1.10;;;;;;;2.13;79.82;99777.72;5119943;28;20031;-65
2023/11/27 05:04:43;;;;;;;1.02;0.85;;;;;;;2.12;79.66;99787.34;5118985;28;20372;-64
2023/11/27 05:07:08;;;;;;;1.65;1.40;;;;;;;2.08;79.59;99787.63;5119329;28;20024;-63
2023/11/27 05:09:37;;;;;;;2.45;1.35;;;;;;;2.06;79.90;99785.13;5119249;28;20050;-63
2023/11/27 05:12:02;;;;;;;3.55;1.70;;;;;;;1.96;80.29;99788.47;5118889;28;20331;-63
2023/11/27 05:14:27;;;;;;;3.97;1.50;;;;;;;1.93;80.43;99782.53;5119883;28;20043;-63
2023/11/27 05:16:53;;;;;;;9.15;1.75;;;;;;;2.00;79.50;99796.00;5119954;28;20042;-65
2023/11/27 05:19:19;;;;;;;1.85;1.25;;;;;;;2.00;80.16;99796.00;5118517;28;20258;-63
2023/11/27 05:21:44;;;;;;;2.35;1.98;;;;;;;2.07;79.54;99785.94;5118474;28;20068;-63
2023/11/27 05:24:09;;;;;;;2.10;1.75;;;;;;;2.15;79.55;99788.88;5118464;28;20217;-63
2023/11/27 05:26:35;;;;;;;1.70;1.58;;;;;;;2.18;79.50;99794.75;5117800;28;20464;-65
2023/11/27 05:29:00;;;;;;;4.55;4.03;;;;;;;2.11;79.83;99785.66;5117522;28;20039;-64
2023/11/27 05:31:26;;;;;;;3.10;1.98;;;;;;;2.17;79.82;99789.63;5117652;28;20080;-63
2023/11/27 05:33:51;;;;;;;4.63;3.40;;;;;;;2.23;79.56;99778.75;5117225;28;20210;-63
2023/11/27 05:36:17;;;;;;;5.38;3.55;;;;;;;2.19;79.75;99783.34;5117385;28;20051;-64
2023/11/27 05:38:42;;;;;;;6.32;4.50;;;;;;;2.20;80.21;99789.41;5117706;28;20492;-65
2023/11/27 05:41:11;;;;;;;3.03;2.55;;;;;;;2.25;79.86;99800.38;5117226;28;20076;-63
2023/11/27 05:43:37;;;;;;;5.40;5.00;;;;;;;2.06;79.59;99794.72;5116833;28;20046;-64
2023/11/27 05:46:02;;;;;;;5.45;5.05;;;;;;;2.34;79.96;99794.50;5117726;28;20035;-64
2023/11/27 05:48:29;;;;;;;2.90;2.70;;;;;;;2.34;80.19;99791.03;5116843;28;20039;-65
2023/11/27 05:50:55;;;;;;;2.70;2.50;;;;;;;2.24;80.10;99803.91;5117472;28;20077;-63
2023/11/27 05:53:20;;;;;;;4.60;4.20;;;;;;;2.39;79.81;99808.06;5117677;28;20039;-63
2023/11/27 05:55:45;;;;;;;4.93;4.40;;;;;;;2.32;79.96;99804.22;5118102;28;20234;-65
2023/11/27 05:58:11;;;;;;;2.40;2.20;;;;;;;2.34;80.18;99820.63;5118109;28;20027;-64
2023/11/27 06:00:36;;;;;;;2.20;2.00;;;;;;;2.17;80.67;99807.91;5118572;28;20046;-63
2023/11/27 06:03:02;;;;;;;2.53;2.33;;;;;;;2.27;80.95;99822.00;5117600;28;20024;-63
2023/11/27 06:05:28;;;;;;;2.88;2.60;;;;;;;1.97;82.22;99816.25;5115646;28;20027;-63
2023/11/27 06:07:53;;;;;;;2.60;2.40;;;;;;;2.12;82.66;99826.50;5116532;28;20228;-65
2023/11/27 06:10:19;;;;;;;1.63;1.48;;;;;;;2.36;82.33;99830.97;5117713;28;20038;-63
2023/11/27 06:12:44;;;;;;;2.83;1.60;;;;;;;2.45;82.42;99838.16;5117080;28;20355;-63
2023/11/27 06:15:15;;;;;;;4.00;2.35;;;;;;;2.44;82.38;99826.03;5117511;28;20309;-63
2023/11/27 06:17:41;;;;;;;4.32;2.42;;;;;;;2.49;82.58;99816.09;5117355;28;20103;-63
2023/11/27 06:20:09;;;;;;;2.20;1.55;;;;;;;2.49;82.93;99837.84;5117218;28;20039;-63
2023/11/27 06:22:36;;;;;;;2.92;2.17;;;;;;;2.29;83.59;99827.94;5117082;28;20032;-64
2023/11/27 06:25:02;;;;;;;2.83;1.85;;;;;;;2.40;84.01;99827.19;5116206;28;20028;-65
2023/11/27 06:27:27;;;;;;;3.88;2.50;;;;;;;2.42;83.46;99836.59;5117538;28;20190;-63
2023/11/27 06:29:53;;;;;;;3.17;1.77;;;;;;;2.44;83.48;99842.53;5117716;28;20065;-63
2023/11/27 06:32:20;;;;;;;2.30;1.70;;;;;;;2.50;83.78;99839.50;5117668;28;20035;-63
2023/11/27 06:34:46;;;;;;;1.67;1.30;;;;;;;2.51;83.30;99849.00;5116665;28;20032;-64
2023/11/27 06:37:12;;;;;;;2.25;1.70;;;;;;;2.61;83.36;99850.97;5115089;28;20043;-65
2023/11/27 06:39:37;;;;;;;3.33;2.13;;;;;;;2.68;83.37;99854.81;5116669;28;20378;-65
2023/11/27 06:42:03;;;;;;;4.50;2.42;;;;;;;2.75;83.33;99851.66;5116726;28;20038;-63
2023/11/27 06:44:28;;;;;;;3.53;2.42;;;;;;;2.78;82.80;99856.66;5116403;28;20458;-63
2023/11/27 06:46:54;;;;;;;4.70;2.75;;;;;;;2.87;83.08;99860.41;5116627;28;20133;-63
2023/11/27 06:49:20;;;;;;;4.88;2.58;;;;;;;2.95;82.84;99865.06;5116211;28;20051;-63
2023/11/27 06:51:45;;;;;;;3.00;2.30;;;;;;;3.12;82.63;99872.53;5116330;28;20027;-63
2023/11/27 06:54:11;;;;;;;6.95;3.53;;;;;;;3.22;81.91;99877.97;5118142;28;20030;-63
2023/11/27 06:56:36;;;;;;;4.88;2.75;;;;;;;3.40;81.71;99885.31;5116729;28;20270;-64
2023/11/27 06:59:05;;;;;;;4.60;3.85;;;;;;;3.56;81.19;99881.56;5116447;28;20216;-65
2023/11/27 07:01:31;;;;;;;4.50;2.92;;;;;;;3.79;81.25;99899.00;5116158;28;20287;-64
2023/11/27 07:03:58;;;;;;;5.63;2.92;;;;;;;4.06;79.79;99902.16;5116176;28;20099;-63
2023/11/27 07:06:24;;;;;;;4.53;3.15;;;;;;;4.36;78.65;99906.84;5116104;28;20032;-63
2023/11/27 07:08:50;;;;;;;5.07;3.20;;;;;;;4.40;75.76;99910.06;5116983;28;20096;-65
2023/11/27 07:11:15;;;;;;;3.47;2.85;;;;;;;4.61;75.03;99915.44;5116926;28;20332;-65
2023/11/27 07:13:41;;;;;;;5.68;3.33;;;;;;;4.85;74.25;99920.53;5115265;28;20228;-63
2023/11/27 07:16:07;;;;;;;4.15;3.30;;;;;;;5.09;73.04;99921.22;5115540;28;20043;-64
2023/11/27 07:18:32;;;;;;;6.60;3.22;;;;;;;5.21;70.22;99929.94;5116983;28;20076;-64
2023/11/27 07:20:58;;;;;;;5.68;3.03;;;;;;;5.29;71.00;99920.47;5116081;27;20039;-64
2023/11/27 07:23:24;;;;;;;3.83;2.63;;;;;;;5.44;69.61;99919.22;5115619;28;20039;-63
2023/11/27 07:25:50;;;;;;;4.72;2.90;;;;;;;5.58;69.48;99912.84;5116092;28;20031;-65
2023/11/27 07:28:16;;;;;;;5.80;3.83;;;;;;;5.67;69.06;99916.50;5116064;28;20209;-66
2023/11/27 07:30:43;;;;;;;5.53;3.08;;;;;;;5.74;68.27;99915.03;5115666;28;20039;-63
2023/11/27 07:33:08;;;;;;;5.55;3.05;;;;;;;5.90;66.47;99923.34;5114419;28;20519;-63
2023/11/27 07:35:34;;;;;;;5.57;3.60;;;;;;;5.88;66.06;99922.59;5115399;28;20242;-64
2023/11/27 07:37:59;;;;;;;6.45;4.22;;;;;;;5.95;66.47;99926.41;5115783;28;20037;-65
2023/11/27 07:40:25;;;;;;;6.63;4.28;;;;;;;5.94;66.84;99921.28;5117503;28;20039;-65
2023/11/27 07:42:50;;;;;;;9.55;5.50;;;;;;;5.96;66.83;99925.47;5115721;28;20347;-63
2023/11/27 07:45:15;;;;;;;5.30;3.42;;;;;;;6.11;66.92;99922.50;5115806;28;20096;-64
2023/11/27 07:47:41;;;;;;;5.40;3.97;;;;;;;6.09;66.69;99934.00;5116331;28;20023;-63
2023/11/27 07:50:07;;;;;;;4.97;2.97;;;;;;;6.17;66.66;99940.41;5116335;28;20337;-63
2023/11/27 07:52:33;;;;;;;5.68;3.20;;;;;;;6.23;67.00;99943.34;5115390;28;20032;-64
2023/11/27 07:54:59;;;;;;;5.85;3.35;;;;;;;6.20;66.68;99943.59;5115025;28;20103;-64
2023/11/27 07:57:24;;;;;;;5.47;3.88;;;;;;;6.18;66.16;99948.16;5116385;28;20027;-64
2023/11/27 07:59:50;;;;;;;4.80;3.05;;;;;;;6.14;65.63;99946.75;5115889;28;20183;-65
2023/11/27 08:02:17;;;;;;;5.07;2.67;;;;;;;6.02;65.87;99940.72;5115395;28;20410;-65
2023/11/27 08:04:42;;;;;;;4.68;3.17;;;;;;;6.09;66.94;99951.56;5115514;28;20452;-63
2023/11/27 08:07:09;;;;;;;3.53;2.80;;;;;;;6.14;66.95;99952.00;5115194;28;20036;-63
2023/11/27 08:09:35;;;;;;;4.93;2.95;;;;;;;6.25;66.66;99948.50;5115135;28;20102;-64
2023/11/27 08:12:01;;;;;;;4.70;3.60;;;;;;;6.27;67.42;99954.47;5115238;28;20355;-63
2023/11/27 08:14:26;;;;;;;6.75;3.08;;;;;;;6.29;65.63;99956.00;5115326;28;20096;-63
2023/11/27 08:16:52;;;;;;;6.93;3.55;;;;;;;6.30;65.61;99954.22;5118911;28;20393;-63
2023/11/27 08:19:17;;;;;;;5.32;3.40;;;;;;;6.24;65.72;99952.06;5119241;28;20531;-64
2023/11/27 08:21:44;;;;;;;4.10;3.70;;;;;;;6.27;66.09;99955.31;5119185;28;20042;-65
2023/11/27 08:24:11;;;;;;;5.95;3.30;;;;;;;6.18;65.30;99955.22;5119485;28;20027;-63
2023/11/27 08:26:41;;;;;;;3.72;2.85;;;;;;;6.16;65.61;99955.34;5119186;28;20364;-64
2023/11/27 08:29:07;;;;;;;14.75;7.63;;;;;;;6.22;67.56;99960.09;5119615;28;20040;-63
2023/11/27 08:31:33;;;;;;;5.13;3.58;;;;;;;6.23;66.69;99959.13;5119734;28;20038;-64
2023/11/27 08:33:59;;;;;;;4.00;3.05;;;;;;;6.25;67.38;99956.38;5119864;27;20035;-63
2023/11/27 08:36:25;;;;;;;2.90;2.30;;;;;;;6.14;66.83;99952.00;5118652;28;20043;-64
2023/11/27 08:38:52;;;;;;;2.20;2.00;;;;;;;6.15;67.56;99950.22;5119004;28;20259;-64
2023/11/27 08:41:18;;;;;;;2.40;1.60;;;;;;;6.15;67.94;99948.41;5118958;28;20039;-63
2023/11/27 08:43:43;;;;;;;2.88;1.80;;;;;;;6.11;66.00;99952.25;5119352;28;20088;-65
2023/11/27 08:46:09;;;;;;;1.73;1.63;;;;;;;6.03;67.08;99947.66;5119804;27;20337;-65
2023/11/27 08:48:35;;;;;;;4.25;2.17;;;;;;;6.12;68.72;99955.72;5118566;28;20103;-63
2023/11/27 08:51:00;;;;;;;1.40;1.30;;;;;;;6.17;67.61;99957.00;5120182;28;20206;-63
2023/11/27 08:53:27;;;;;;;3.05;2.85;;;;;;;6.11;66.97;99948.78;5119202;28;20308;-63
2023/11/27 08:55:55;;;;;;;3.30;3.00;;;;;;;6.20;67.24;99961.16;5119000;27;20054;-63
2023/11/27 08:58:20;;;;;;;3.55;1.80;;;;;;;6.25;66.33;99959.03;5118837;28;20085;-64
2023/11/27 09:00:45;;;;;;;3.25;2.15;;;;;;;6.26;66.45;99960.69;5119589;28;20047;-63
2023/11/27 09:03:11;;;;;;;1.88;1.23;;;;;;;5.97;64.43;99942.91;5118871;28;20062;-63
2023/11/27 09:05:41;;;;;;;2.38;1.38;;;;;;;5.89;64.76;99950.59;5118704;28;20027;-65
2023/11/27 09:08:07;;;;;;;2.63;1.42;;;;;;;5.92;65.28;99952.13;5118625;28;20318;-64
2023/11/27 09:10:33;;;;;;;1.30;1.13;;;;;;;6.02;67.17;99947.78;5118880;28;20324;-63
2023/11/27 09:12:58;;;;;;;1.40;0.80;;;;;;;6.00;66.33;99952.31;5118334;28;20031;-64
2023/11/27 09:15:24;;;;;;;2.47;1.80;;;;;;;5.97;66.23;99947.31;5119052;28;20092;-65
2023/11/27 09:17:50;;;;;;;2.70;2.50;;;;;;;5.95;65.30;99954.50;5119094;28;20228;-64
2023/11/27 09:20:16;;;;;;;1.30;0.80;;;;;;;5.74;65.43;99943.94;5118953;28;20039;-65
2023/11/27 09:22:42;;;;;;;0.93;0.70;;;;;;;5.88;65.38;99942.81;5118415;28;20044;-65
2023/11/27 09:25:09;;;;;;;1.58;1.48;;;;;;;5.86;64.79;99945.56;5118722;28;20047;-64
2023/11/27 09:27:46;;;;;;;1.70;1.10;;;;;;;5.94;66.32;99951.03;5117615;28;20036;-62
2023/11/27 09:30:12;;;;;;;1.73;1.50;;;;;;;5.73;66.28;99944.91;5118179;28;20047;-62
2023/11/27 09:32:38;;;;;;;1.60;1.50;;;;;;;5.81;68.29;99941.63;5116707;28;20391;-62
2023/11/27 09:35:12;;;;;;;2.03;1.33;;;;;;;5.97;67.49;99935.00;5117984;27;20348;-62
2023/11/27 09:37:38;;;;;;;;;;;;;;;5.81;65.46;99939.84;5119084;27;20252;-62
2023/11/27 09:40:05;;;;;;;2.75;2.35;;;;;;;5.80;65.72;99938.19;5118450;28;19930;-62
2023/11/27 09:42:35;;;;;;;2.20;1.50;;;;;;;5.91;65.40;99932.06;5118199;28;20618;-64
2023/11/27 09:45:05;;;;;;;2.83;2.47;;;;;;;5.79;66.48;99926.00;5118336;28;20198;-62
2023/11/27 09:47:31;;;;;;;1.50;1.40;;;;;;;5.87;65.58;99918.31;5118170;28;20032;-63
2023/11/27 09:49:59;;;;;;;2.47;2.28;;;;;;;5.75;64.23;99914.06;5117738;28;20138;-62
2023/11/27 09:52:32;;;;;;;2.50;2.30;;;;;;;5.90;64.64;99919.88;5117706;28;20043;-62
2023/11/27 09:55:04;;;;;;;1.13;0.80;;;;;;;5.77;63.74;99920.03;5118082;28;20820;-62
2023/11/27 09:57:32;;;;;;;3.15;2.88;;;;;;;5.95;64.40;99926.41;5118160;28;20039;-63
2023/11/27 09:59:59;;;;;;;1.52;0.70;;;;;;;5.94;65.09;99923.94;5117665;28;20032;-64
2023/11/27 10:02:25;;;;;;;3.33;1.70;;;;;;;5.97;62.69;99921.03;5117046;28;20034;-62
2023/11/27 10:04:52;;;;;;;5.43;2.30;;;;;;;6.04;63.48;99922.19;5116713;28;20085;-63
2023/11/27 10:07:21;;;;;;;2.20;1.52;;;;;;;6.04;64.79;99922.19;5116832;28;20317;-62
2023/11/27 10:09:51;;;;;;;3.30;2.47;;;;;;;6.07;66.17;99921.94;5117031;28;20337;-62
2023/11/27 10:12:28;;;;;;;1.58;1.48;;;;;;;6.11;65.43;99922.50;5117406;28;20554;-62
2023/11/27 10:14:54;;;;;;;1.88;0.80;;;;;;;6.18;63.99;99913.13;5117633;28;20483;-62
2023/11/27 10:17:21;;;;;;;2.47;1.00;;;;;;;6.20;61.30;99911.22;5117349;28;20069;-64
2023/11/27 10:19:50;;;;;;;1.70;1.60;;;;;;;6.18;59.43;99915.78;5118015;28;20737;-63
2023/11/27 10:22:15;;;;;;;6.93;5.18;;;;;;;6.25;60.37;99912.53;5117399;28;20023;-61
2023/11/27 10:24:43;;;;;;;2.92;1.67;;;;;;;6.26;62.67;99893.16;5117614;28;20042;-63
2023/11/27 10:27:09;;;;;;;3.13;2.55;;;;;;;6.18;62.70;99894.72;5117302;28;20031;-62
2023/11/27 10:29:34;;;;;;;2.67;1.20;;;;;;;6.19;59.76;99893.78;5116888;28;20407;-62
2023/11/27 10:32:00;;;;;;;0.75;0.75;;;;;;;6.24;58.38;99897.72;5117398;28;20043;-64
2023/11/27 10:34:29;;;;;;;2.05;1.30;;;;;;;6.27;59.88;99902.72;5116914;28;20031;-63
2023/11/27 10:36:57;;;;;;;0.82;0.80;;;;;;;6.25;59.13;99896.75;5116774;28;20045;-65
2023/11/27 10:39:25;;;;;;;1.65;1.08;;;;;;;6.34;60.13;99895.97;5114623;28;20091;-63
2023/11/27 10:41:53;;;;;;;1.83;1.00;;;;;;;6.39;61.40;99903.47;5117055;28;20368;-62
2023/11/27 10:44:22;;;;;;;2.85;1.40;;;;;;;6.33;61.19;99898.72;5116971;28;20524;-62
2023/11/27 10:46:48;;;;;;;2.28;1.35;;;;;;;6.32;61.94;99897.06;5116003;28;20035;-62
2023/11/27 10:49:15;;;;;;;3.28;1.65;;;;;;;6.39;60.58;99904.28;5115996;28;20047;-64
2023/11/27 10:51:45;;;;;;;1.70;1.25;;;;;;;6.39;60.08;99913.97;5116315;28;20035;-64
2023/11/27 10:54:14;;;;;;;1.88;1.52;;;;;;;6.53;61.24;99913.63;5116552;28;20035;-62
2023/11/27 10:56:44;;;;;;;1.50;1.23;;;;;;;6.59;60.46;99913.09;5116667;28;20084;-63
2023/11/27 10:59:13;;;;;;;2.13;1.52;;;;;;;6.47;59.72;99913.31;5117433;28;20099;-62
2023/11/27 11:01:41;;;;;;;3.88;2.17;;;;;;;6.53;60.63;99915.41;5116699;28;20035;-62
2023/11/27 11:04:27;;;;;;;2.03;1.50;;;;;;;6.78;60.98;99922.03;5115684;28;20317;-62
2023/11/27 11:07:00;;;;;;;1.92;1.80;;;;;;;6.84;61.35;99921.50;5115899;28;20043;-64
2023/11/27 11:09:27;;;;;;;2.80;1.30;;;;;;;6.88;60.14;99915.00;5117672;28;20228;-65
2023/11/27 11:11:55;;;;;;;1.88;1.50;;;;;;;6.89;59.43;99920.13;5116628;28;20038;-64
2023/11/27 11:14:24;;;;;;;1.80;1.35;;;;;;;6.92;59.59;99909.31;5116836;28;20096;-63
2023/11/27 11:16:55;;;;;;;2.05;1.90;;;;;;;6.84;59.41;99910.97;5116966;28;20431;-63
2023/11/27 11:19:36;;;;;;;2.47;1.40;;;;;;;6.88;58.88;99907.09;5116596;28;20042;-63
2023/11/27 11:22:04;;;;;;;1.05;0.80;;;;;;;6.89;58.53;99901.69;5116697;28;20109;-65
2023/11/27 11:24:37;;;;;;;1.45;1.20;;;;;;;6.91;59.55;99902.38;5115904;28;20054;-65
2023/11/27 11:27:17;;;;;;;2.03;1.58;;;;;;;6.87;59.11;99908.91;5115767;28;20152;-66
2023/11/27 11:29:46;;;;;;;1.17;1.13;;;;;;;6.90;59.11;99908.63;5115638;28;20353;-65
2023/11/27 11:32:18;;;;;;;3.10;1.40;;;;;;;6.87;58.87;99901.00;5116416;28;20023;-65
2023/11/27 11:34:51;;;;;;;2.28;1.17;;;;;;;6.86;58.92;99898.50;5115428;28;20085;-65
2023/11/27 11:37:18;;;;;;;1.73;1.40;;;;;;;6.86;58.86;99887.97;5115845;28;20051;-65